Time;durP1;ratioP1;P1;durP2;ratioP2;P2;SDS_P1;SDS_P2;PMS_P1;PMS_P2;Temp;Humidity;BMP_temperature;BMP_pressure;BME280_temperature;BME280_humidity;BME280_pressure;Samples;Min_cycle;Max_cycle;Signal;HPM_P1;HPM_P2
2022/06/04 00:00:47;;;;;;;3.27;3.08;;;;;;;16.74;67.28;96656.47;1623050;86;21028;-80
2022/06/04 00:03:13;;;;;;;3.50;3.20;;;;;;;16.74;67.35;96648.60;1664077;86;21369;-80
2022/06/04 00:05:42;;;;;;;3.02;2.83;;;;;;;16.72;67.35;96649.33;1667999;86;21043;-80
2022/06/04 00:08:08;;;;;;;2.95;2.75;;;;;;;16.73;67.51;96650.93;1650934;86;20990;-81
2022/06/04 00:16:10;;;;;;;3.25;2.65;;;;;;;16.77;67.78;96649.52;1673992;86;21094;-80
2022/06/04 00:18:38;;;;;;;3.33;3.00;;;;;;;16.78;67.77;96646.38;1678925;84;20993;-80
2022/06/04 00:21:04;;;;;;;5.20;3.37;;;;;;;16.80;67.74;96646.45;1678583;84;21018;-80
2022/06/04 00:23:30;;;;;;;4.35;2.98;;;;;;;16.80;67.70;96643.03;1655377;85;20955;-80
2022/06/04 00:25:58;;;;;;;3.22;2.80;;;;;;;16.78;67.84;96643.24;1678776;84;20974;-81
2022/06/04 00:28:25;;;;;;;4.17;3.10;;;;;;;16.78;67.95;96644.55;1670280;84;21051;-81
2022/06/04 00:30:51;;;;;;;3.45;3.15;;;;;;;16.77;67.82;96641.64;1662191;84;20927;-81
2022/06/04 00:33:16;;;;;;;3.60;3.27;;;;;;;16.78;67.82;96631.95;1672868;84;20975;-80
2022/06/04 00:35:43;;;;;;;3.90;3.50;;;;;;;16.79;67.87;96633.55;1668958;84;20987;-80
2022/06/04 00:38:13;;;;;;;4.97;3.00;;;;;;;16.80;68.02;96630.70;1655316;84;21043;-81
2022/06/04 00:40:58;;;;;;;3.62;3.17;;;;;;;16.83;67.98;96633.92;1678269;84;20912;-80
2022/06/04 00:43:25;;;;;;;3.87;3.47;;;;;;;16.86;68.02;96621.67;1657095;84;20962;-80
2022/06/04 00:46:34;;;;;;;3.00;2.75;;;;;;;16.87;68.00;96619.34;1650378;84;20991;-80
2022/06/04 00:48:59;;;;;;;2.60;2.30;;;;;;;16.93;68.03;96627.69;1660034;84;21008;-80
2022/06/04 00:51:25;;;;;;;3.00;2.65;;;;;;;16.99;67.86;96619.73;1664028;84;20991;-80
2022/06/04 00:53:51;;;;;;;4.12;3.30;;;;;;;17.06;67.89;96617.05;1655825;84;20970;-81
2022/06/04 00:56:59;;;;;;;3.80;3.17;;;;;;;17.10;67.71;96615.61;1657905;84;21014;-80
2022/06/04 00:59:57;;;;;;;3.50;2.80;;;;;;;17.15;67.73;96609.70;1676078;84;21302;-80
2022/06/04 01:03:02;;;;;;;4.33;3.95;;;;;;;17.18;67.68;96610.06;1668598;84;21341;-81
2022/06/04 01:05:47;;;;;;;3.52;3.05;;;;;;;17.20;67.62;96611.95;1650188;84;21047;-80
2022/06/04 01:08:44;;;;;;;3.20;3.00;;;;;;;17.22;67.55;96610.42;1659090;85;21032;-81
2022/06/04 01:12:09;;;;;;;3.35;3.05;;;;;;;17.23;67.69;96604.15;1651682;85;20956;-81
2022/06/04 01:14:33;;;;;;;3.85;2.67;;;;;;;17.27;67.54;96604.03;1644943;86;20979;-80
2022/06/04 01:17:10;;;;;;;4.33;3.10;;;;;;;17.30;67.46;96601.77;1645436;85;21004;-80
2022/06/04 01:20:02;;;;;;;5.25;3.22;;;;;;;17.35;67.44;96604.53;1606127;88;21433;-81
2022/06/04 01:22:49;;;;;;;3.17;2.87;;;;;;;17.37;67.31;96598.55;1591810;87;21447;-80
2022/06/04 01:25:29;;;;;;;4.08;2.87;;;;;;;17.41;67.12;96597.62;1596741;88;21040;-80
2022/06/04 01:28:05;;;;;;;4.70;3.30;;;;;;;17.43;67.04;96595.57;1609996;87;21095;-81
2022/06/04 01:30:40;;;;;;;3.22;2.92;;;;;;;17.42;67.05;96600.53;1611667;87;21463;-80
2022/06/04 01:33:14;;;;;;;3.67;3.12;;;;;;;17.39;67.05;96594.37;1618425;87;21431;-81
2022/06/04 01:35:45;;;;;;;3.40;3.10;;;;;;;17.37;66.94;96593.29;1611278;88;21032;-80
2022/06/04 01:38:22;;;;;;;3.40;3.10;;;;;;;17.36;66.99;96590.88;1618208;87;21016;-81
2022/06/04 01:41:05;;;;;;;3.30;2.90;;;;;;;17.35;67.17;96590.08;1604417;87;21088;-80
2022/06/04 01:43:54;;;;;;;3.25;2.92;;;;;;;17.36;67.37;96582.49;1615345;87;21048;-81
2022/06/04 01:46:30;;;;;;;3.10;2.80;;;;;;;17.37;67.27;96581.47;1611124;87;21027;-81
2022/06/04 01:49:00;;;;;;;3.17;2.87;;;;;;;17.39;67.40;96583.36;1617864;87;21012;-81
2022/06/04 01:51:27;;;;;;;4.05;3.00;;;;;;;17.40;67.36;96579.71;1596520;89;21424;-81
2022/06/04 01:53:58;;;;;;;3.70;3.35;;;;;;;17.40;67.40;96579.71;1598833;87;21000;-80
2022/06/04 01:56:29;;;;;;;3.25;2.95;;;;;;;17.42;67.33;96584.77;1618165;86;21111;-81
2022/06/04 01:59:00;;;;;;;3.27;2.90;;;;;;;17.44;67.33;96580.61;1617314;87;21341;-81
2022/06/04 02:01:31;;;;;;;3.22;2.60;;;;;;;17.45;67.21;96572.51;1596975;87;21310;-80
2022/06/04 02:04:15;;;;;;;3.00;2.80;;;;;;;17.48;67.11;96569.95;1624761;87;21449;-81
2022/06/04 02:07:29;;;;;;;2.90;2.67;;;;;;;17.52;66.96;96575.05;1628885;87;21089;-81
2022/06/04 02:09:15;;;;;;;4.95;2.95;;;;;;;17.56;66.89;96569.63;1620062;87;21044;-81
2022/06/04 02:11:45;;;;;;;4.28;2.95;;;;;;;17.59;66.84;96566.08;1625388;87;21036;-81
2022/06/04 02:14:11;;;;;;;3.00;2.77;;;;;;;17.63;66.67;96567.23;1638260;87;21070;-81
2022/06/04 02:16:46;;;;;;;4.17;3.20;;;;;;;17.68;65.90;96563.45;1635413;87;21059;-80
2022/06/04 02:19:12;;;;;;;3.50;2.70;;;;;;;17.76;66.01;96568.92;1630075;87;21010;-81
2022/06/04 02:21:38;;;;;;;3.45;3.15;;;;;;;17.82;65.44;96565.91;1636015;86;21050;-81
2022/06/04 02:24:05;;;;;;;3.00;2.72;;;;;;;17.90;64.93;96563.79;1633796;87;21460;-80
2022/06/04 02:26:31;;;;;;;3.08;2.70;;;;;;;17.98;64.90;96566.09;1641097;87;21051;-82
2022/06/04 02:28:58;;;;;;;2.80;2.60;;;;;;;18.00;64.62;96557.46;1615778;87;21388;-81
2022/06/04 02:31:44;;;;;;;3.12;2.92;;;;;;;18.05;64.60;96558.09;1636925;87;20984;-81
2022/06/04 02:34:30;;;;;;;3.25;3.05;;;;;;;18.07;64.39;96556.07;1612590;89;21063;-81
2022/06/04 02:37:40;;;;;;;2.40;2.20;;;;;;;18.11;64.20;96551.95;1625947;87;21070;-81
2022/06/04 02:40:24;;;;;;;3.52;2.80;;;;;;;18.12;64.46;96543.04;1619336;87;21014;-81
2022/06/04 02:43:13;;;;;;;2.87;2.67;;;;;;;18.12;64.63;96543.55;1615212;87;21004;-81
2022/06/04 02:45:43;;;;;;;2.77;2.42;;;;;;;18.12;64.42;96543.55;1621458;87;20959;-80
2022/06/04 02:48:23;;;;;;;4.03;2.80;;;;;;;18.14;64.68;96550.19;1645365;86;21030;-80
2022/06/04 02:50:56;;;;;;;3.35;2.90;;;;;;;18.16;64.45;96547.33;1617602;88;21524;-80
2022/06/04 02:53:22;;;;;;;2.65;2.45;;;;;;;18.17;64.54;96548.93;1641937;87;20963;-81
2022/06/04 02:55:52;;;;;;;4.05;2.50;;;;;;;18.20;64.16;96551.11;1626200;86;21026;-81
2022/06/04 02:58:19;;;;;;;3.50;2.55;;;;;;;18.20;64.14;96557.16;1641932;87;21342;-81
2022/06/04 03:00:47;;;;;;;4.47;2.75;;;;;;;18.24;64.42;96550.97;1639889;87;21066;-82
2022/06/04 03:03:13;;;;;;;3.45;2.67;;;;;;;18.24;64.71;96550.45;1644748;86;21059;-81
2022/06/04 03:05:58;;;;;;;3.02;2.65;;;;;;;18.24;64.69;96554.40;1646590;86;21915;-81
2022/06/04 03:08:26;;;;;;;3.77;2.65;;;;;;;18.23;64.35;96552.00;1639522;86;21101;-81
2022/06/04 03:10:52;;;;;;;4.20;3.00;;;;;;;18.22;64.42;96556.94;1630563;86;21038;-82
2022/06/04 03:13:18;;;;;;;4.50;2.50;;;;;;;18.21;64.67;96558.77;1641557;86;21338;-80
2022/06/04 03:15:43;;;;;;;3.02;2.72;;;;;;;18.20;64.54;96558.99;1641874;86;20959;-81
2022/06/04 03:18:10;;;;;;;3.27;2.35;;;;;;;18.23;63.89;96558.57;1663935;86;21023;-80
2022/06/04 03:20:37;;;;;;;2.80;2.60;;;;;;;18.32;63.83;96559.03;1661038;84;21087;-81
2022/06/04 03:23:03;;;;;;;3.45;2.60;;;;;;;18.41;63.99;96565.06;1647935;84;20975;-81
2022/06/04 03:25:30;;;;;;;4.33;3.05;;;;;;;18.52;63.31;96564.26;1637524;87;21038;-81
2022/06/04 03:27:56;;;;;;;4.05;2.47;;;;;;;18.63;62.91;96555.30;1650582;86;21003;-80
2022/06/04 03:30:22;;;;;;;2.83;2.60;;;;;;;18.68;62.99;96560.19;1669459;84;20935;-81
2022/06/04 03:32:47;;;;;;;3.90;3.00;;;;;;;18.69;63.80;96569.68;1664361;83;21367;-81
2022/06/04 03:35:14;;;;;;;3.05;2.85;;;;;;;18.64;64.45;96562.20;1682027;85;20972;-81
2022/06/04 03:37:39;;;;;;;3.05;2.80;;;;;;;18.55;64.45;96564.34;1665166;83;21151;-81
2022/06/04 03:40:08;;;;;;;3.45;3.15;;;;;;;18.48;65.02;96571.02;1686456;83;21059;-81
2022/06/04 03:42:33;;;;;;;4.10;2.83;;;;;;;18.42;65.47;96571.13;1681919;85;21012;-81
2022/06/04 03:44:59;;;;;;;3.27;2.92;;;;;;;18.34;66.28;96563.55;1644907;85;20986;-80
2022/06/04 03:47:25;;;;;;;3.20;2.90;;;;;;;18.27;66.85;96570.23;1665011;84;20999;-80
2022/06/04 03:49:51;;;;;;;5.17;2.80;;;;;;;18.21;67.25;96572.43;1645628;84;21038;-81
2022/06/04 03:52:17;;;;;;;3.12;2.77;;;;;;;18.15;67.50;96579.41;1686256;83;21072;-80
2022/06/04 03:54:52;;;;;;;3.22;3.02;;;;;;;18.12;68.00;96577.73;1680805;85;21068;-80
2022/06/04 03:57:45;;;;;;;3.17;2.83;;;;;;;18.08;68.38;96576.59;1663422;84;21062;-80
2022/06/04 04:00:24;;;;;;;3.42;3.00;;;;;;;18.02;68.81;96582.21;1651342;86;21115;-80
2022/06/04 04:02:57;;;;;;;3.37;3.12;;;;;;;17.95;69.01;96584.94;1648866;85;21019;-80
2022/06/04 04:05:27;;;;;;;2.90;2.70;;;;;;;17.91;69.32;96592.19;1635499;86;21038;-80
2022/06/04 04:07:54;;;;;;;3.42;3.00;;;;;;;17.87;69.30;96593.13;1635129;86;21044;-80
2022/06/04 04:10:20;;;;;;;3.02;2.75;;;;;;;17.86;69.24;96598.61;1646038;86;21054;-80
2022/06/04 04:12:46;;;;;;;3.42;2.87;;;;;;;17.87;68.50;96598.38;1654433;86;21456;-80
2022/06/04 04:15:12;;;;;;;3.50;2.95;;;;;;;17.94;68.74;96605.69;1634713;86;20983;-80
2022/06/04 04:17:39;;;;;;;3.90;2.50;;;;;;;18.00;66.89;96610.55;1654712;86;20982;-81
2022/06/04 04:20:09;;;;;;;3.12;2.83;;;;;;;18.16;66.37;96600.73;1644657;86;21023;-80
2022/06/04 04:22:36;;;;;;;4.58;3.00;;;;;;;18.30;65.94;96606.09;1646579;84;21109;-80
2022/06/04 04:25:04;;;;;;;3.80;3.10;;;;;;;18.37;65.90;96616.50;1634198;86;21437;-81
2022/06/04 04:27:30;;;;;;;4.22;2.85;;;;;;;18.45;65.64;96617.52;1636108;86;21005;-80
2022/06/04 04:29:56;;;;;;;3.35;3.05;;;;;;;18.48;66.00;96609.16;1660574;86;21054;-80
2022/06/04 04:32:21;;;;;;;3.10;2.80;;;;;;;18.47;66.18;96621.23;1649460;86;21402;-80
2022/06/04 04:34:47;;;;;;;2.77;2.52;;;;;;;18.44;66.12;96624.31;1667054;84;21054;-80
2022/06/04 04:37:13;;;;;;;3.67;3.37;;;;;;;18.45;67.01;96624.09;1630909;86;21131;-80
2022/06/04 04:39:38;;;;;;;4.12;2.90;;;;;;;18.40;67.25;96627.12;1635399;86;20992;-80
2022/06/04 04:42:05;;;;;;;3.42;3.05;;;;;;;18.37;67.26;96625.71;1628470;86;21038;-80
2022/06/04 04:44:30;;;;;;;3.25;2.95;;;;;;;18.33;67.92;96633.77;1663175;86;20956;-80
2022/06/04 04:46:56;;;;;;;4.00;3.10;;;;;;;18.27;68.25;96628.91;1659050;86;21434;-80
2022/06/04 04:49:22;;;;;;;3.20;2.98;;;;;;;18.21;68.42;96627.66;1651290;86;21046;-80
2022/06/04 04:51:48;;;;;;;3.40;3.17;;;;;;;18.12;69.41;96629.81;1663330;86;20998;-80
2022/06/04 04:54:14;;;;;;;3.45;3.15;;;;;;;18.05;69.96;96627.77;1636912;86;21430;-80
2022/06/04 04:56:40;;;;;;;4.15;3.75;;;;;;;17.97;69.76;96617.58;1650885;85;20947;-80
2022/06/04 04:59:07;;;;;;;3.98;3.12;;;;;;;17.93;70.29;96623.80;1635124;86;20991;-81
2022/06/04 05:01:33;;;;;;;3.40;2.72;;;;;;;17.90;70.86;96618.19;1669788;84;21002;-81
2022/06/04 05:03:59;;;;;;;3.30;3.00;;;;;;;17.87;70.48;96619.92;1663271;86;21049;-80
2022/06/04 05:06:24;;;;;;;4.10;3.58;;;;;;;17.86;71.00;96613.86;1665234;86;21469;-80
2022/06/04 05:08:53;;;;;;;4.33;3.42;;;;;;;17.85;71.35;96615.41;1667752;86;21039;-80
2022/06/04 05:11:24;;;;;;;4.40;3.80;;;;;;;17.84;72.06;96619.86;1671885;84;21065;-80
2022/06/04 05:13:50;;;;;;;4.42;3.30;;;;;;;17.77;72.08;96615.20;1672820;85;21026;-80
2022/06/04 05:16:18;;;;;;;3.98;3.40;;;;;;;17.73;72.66;96617.97;1673224;86;21308;-81
2022/06/04 05:18:44;;;;;;;3.50;3.20;;;;;;;17.70;73.14;96623.66;1671294;86;21373;-80
2022/06/04 05:21:21;;;;;;;3.70;3.40;;;;;;;17.65;73.42;96621.67;1667551;86;20967;-81
2022/06/04 05:23:48;;;;;;;3.90;3.17;;;;;;;17.63;73.79;96626.35;1673124;86;21037;-81
2022/06/04 05:26:16;;;;;;;4.30;3.30;;;;;;;17.60;74.60;96626.80;1662350;86;21374;-82
2022/06/04 05:28:42;;;;;;;3.50;3.20;;;;;;;17.55;74.85;96628.45;1657612;86;21014;-81
2022/06/04 05:31:09;;;;;;;3.92;2.98;;;;;;;17.50;75.20;96625.69;1654291;85;21336;-81
2022/06/04 05:33:35;;;;;;;4.10;3.05;;;;;;;17.44;75.66;96618.19;1677700;84;21001;-83
2022/06/04 05:36:02;;;;;;;4.22;3.22;;;;;;;17.46;76.04;96625.84;1659420;86;20982;-82
2022/06/04 05:38:28;;;;;;;4.03;3.30;;;;;;;17.46;76.58;96625.34;1661351;84;21420;-82
2022/06/04 05:41:06;;;;;;;3.50;3.10;;;;;;;17.48;77.07;96618.55;1674089;85;21002;-83
2022/06/04 05:43:33;;;;;;;5.08;3.40;;;;;;;17.47;77.34;96619.57;1662001;85;21439;-84
2022/06/04 05:46:03;;;;;;;5.00;2.90;;;;;;;17.44;77.81;96615.56;1677310;85;20998;-83
2022/06/04 05:48:30;;;;;;;3.62;3.33;;;;;;;17.39;78.09;96618.82;1668300;85;21381;-84
2022/06/04 05:50:56;;;;;;;5.75;3.42;;;;;;;17.38;78.66;96618.53;1664072;85;21078;-83
2022/06/04 05:53:22;;;;;;;5.47;3.12;;;;;;;17.36;78.86;96617.95;1670666;86;21010;-82
2022/06/04 05:55:49;;;;;;;3.22;2.90;;;;;;;17.35;79.30;96615.55;1672099;86;21042;-83
2022/06/04 05:58:14;;;;;;;4.15;2.90;;;;;;;17.34;79.54;96618.69;1669332;86;21060;-82
2022/06/04 06:00:40;;;;;;;5.95;2.77;;;;;;;17.35;79.79;96618.97;1672384;86;21434;-82
2022/06/04 06:03:06;;;;;;;3.60;2.98;;;;;;;17.35;80.19;96612.41;1661366;86;20962;-83
2022/06/04 06:05:32;;;;;;;4.55;2.80;;;;;;;17.32;80.54;96604.97;1692169;85;21088;-82
2022/06/04 06:07:58;;;;;;;4.75;2.65;;;;;;;17.34;80.92;96598.19;1691923;84;21442;-83
2022/06/04 06:10:25;;;;;;;4.00;2.92;;;;;;;17.38;81.12;96596.20;1682049;85;21046;-82
2022/06/04 06:12:55;;;;;;;4.22;2.90;;;;;;;17.47;81.18;96597.24;1662540;86;21513;-82
2022/06/04 06:15:21;;;;;;;6.72;2.87;;;;;;;17.55;81.29;96602.19;1668498;85;21361;-83
2022/06/04 06:17:47;;;;;;;4.72;3.45;;;;;;;17.65;81.30;96609.05;1664162;86;20951;-83
2022/06/04 06:20:14;;;;;;;6.35;2.35;;;;;;;17.72;81.71;96609.79;1669840;85;21063;-82
2022/06/04 06:22:40;;;;;;;3.25;2.75;;;;;;;17.82;81.44;96605.34;1672230;86;20943;-82
2022/06/04 06:25:07;;;;;;;4.22;2.52;;;;;;;17.87;81.30;96593.13;1672534;86;20943;-83
2022/06/04 06:27:33;;;;;;;5.90;2.20;;;;;;;17.94;81.92;96582.54;1672389;86;21014;-82
2022/06/04 06:29:59;;;;;;;3.15;2.40;;;;;;;17.97;81.19;96576.83;1671813;85;21034;-82
2022/06/04 06:32:25;;;;;;;4.40;2.10;;;;;;;18.02;81.80;96578.78;1660622;86;21023;-82
2022/06/04 06:34:51;;;;;;;5.20;3.27;;;;;;;18.09;82.35;96590.83;1644889;86;21030;-82
2022/06/04 06:37:17;;;;;;;6.53;3.05;;;;;;;18.15;82.98;96604.90;1666978;84;21097;-82
2022/06/04 06:39:43;;;;;;;7.90;6.10;;;;;;;18.24;83.24;96613.58;1669975;86;20975;-82
2022/06/04 06:42:08;;;;;;;5.70;4.15;;;;;;;18.38;83.53;96610.73;1667544;85;21063;-82
2022/06/04 06:44:34;;;;;;;15.03;9.93;;;;;;;18.44;82.91;96620.38;1668698;86;21006;-82
2022/06/04 06:47:00;;;;;;;6.22;4.80;;;;;;;18.54;83.49;96614.83;1641452;86;21048;-82
2022/06/04 06:49:28;;;;;;;7.42;4.47;;;;;;;18.67;82.74;96614.37;1667081;85;21001;-82
2022/06/04 06:52:01;;;;;;;5.60;5.10;;;;;;;18.72;82.08;96618.46;1668116;86;21065;-83
2022/06/04 06:54:31;;;;;;;5.30;4.80;;;;;;;18.82;82.49;96605.52;1665888;84;21114;-82
2022/06/04 06:56:57;;;;;;;7.22;4.47;;;;;;;18.85;82.54;96608.49;1669863;86;21113;-83
2022/06/04 06:59:25;;;;;;;5.42;4.92;;;;;;;18.94;82.04;96603.70;1669456;84;21019;-82
2022/06/04 07:01:51;;;;;;;7.95;4.85;;;;;;;19.02;82.28;96601.23;1671188;85;20998;-83
2022/06/04 07:04:17;;;;;;;5.10;4.60;;;;;;;19.08;81.36;96608.23;1669857;86;21368;-82
2022/06/04 07:06:46;;;;;;;5.70;3.45;;;;;;;19.13;82.40;96603.06;1643323;86;21062;-82
2022/06/04 07:09:21;;;;;;;4.55;3.95;;;;;;;19.18;82.07;96599.22;1672372;86;20966;-82
2022/06/04 07:11:47;;;;;;;5.33;4.83;;;;;;;19.10;81.91;96604.33;1669114;86;21082;-82
2022/06/04 07:14:13;;;;;;;6.10;5.55;;;;;;;19.11;82.48;96611.20;1665742;85;20994;-82
2022/06/04 07:16:39;;;;;;;5.70;5.20;;;;;;;19.19;82.22;96616.63;1664081;86;20998;-82
2022/06/04 07:19:05;;;;;;;6.50;5.90;;;;;;;19.29;82.41;96616.85;1672007;85;21070;-82
2022/06/04 07:21:32;;;;;;;6.92;4.78;;;;;;;19.39;83.20;96618.92;1672082;86;20975;-82
2022/06/04 07:23:58;;;;;;;5.62;5.12;;;;;;;19.45;82.92;96623.25;1664095;86;21106;-82
2022/06/04 07:26:25;;;;;;;8.45;7.75;;;;;;;19.44;82.16;96625.09;1672390;86;21271;-82
2022/06/04 07:28:50;;;;;;;8.00;6.42;;;;;;;19.44;81.38;96625.60;1672411;86;21025;-83
2022/06/04 07:31:16;;;;;;;7.40;6.60;;;;;;;19.44;81.13;96623.77;1668272;85;20986;-83
2022/06/04 07:33:44;;;;;;;8.55;7.67;;;;;;;19.50;81.18;96628.62;1672036;85;20991;-83
2022/06/04 07:36:18;;;;;;;7.42;6.72;;;;;;;19.46;80.36;96633.55;1672378;85;20998;-83
2022/06/04 07:38:44;;;;;;;8.00;7.12;;;;;;;19.47;80.63;96639.63;1662012;84;21529;-84
2022/06/04 07:41:21;;;;;;;7.20;6.50;;;;;;;19.43;80.67;96645.88;1672173;86;21050;-83
2022/06/04 07:43:47;;;;;;;8.35;6.97;;;;;;;19.44;80.58;96648.80;1672251;85;20974;-83
2022/06/04 07:46:13;;;;;;;9.65;8.58;;;;;;;19.51;80.87;96646.03;1671567;86;21353;-83
2022/06/04 07:48:39;;;;;;;10.35;9.45;;;;;;;19.43;79.41;96648.52;1672320;84;20951;-82
2022/06/04 07:51:05;;;;;;;9.38;8.48;;;;;;;19.34;79.19;96650.41;1672949;84;20959;-83
2022/06/04 07:53:31;;;;;;;8.88;8.15;;;;;;;19.19;79.81;96648.23;1641802;86;20967;-83
2022/06/04 07:55:57;;;;;;;9.58;8.60;;;;;;;19.19;80.11;96646.91;1671890;86;20971;-82
2022/06/04 07:58:23;;;;;;;9.73;8.73;;;;;;;19.15;79.70;96651.05;1671955;85;20973;-83
2022/06/04 08:00:57;;;;;;;9.50;8.55;;;;;;;19.10;80.01;96658.84;1672942;86;20996;-83
2022/06/04 08:03:22;;;;;;;9.80;8.85;;;;;;;19.09;80.56;96661.98;1672123;84;21013;-83
2022/06/04 08:05:50;;;;;;;9.83;8.80;;;;;;;19.14;80.95;96665.24;1669415;84;20935;-83
2022/06/04 08:08:16;;;;;;;9.83;8.83;;;;;;;19.17;80.71;96655.05;1665686;86;21158;-83
2022/06/04 08:10:47;;;;;;;11.05;10.05;;;;;;;19.26;81.03;96656.83;1660057;86;20975;-83
2022/06/04 08:13:47;;;;;;;13.05;10.00;;;;;;;19.31;81.21;96650.87;1640973;86;21036;-83
2022/06/04 08:15:47;;;;;;;11.30;10.20;;;;;;;19.36;81.50;96653.61;1646263;86;21315;-84
2022/06/04 08:18:15;;;;;;;12.53;11.00;;;;;;;19.36;81.20;96654.92;1655296;85;21381;-83
2022/06/04 08:20:46;;;;;;;11.93;10.93;;;;;;;19.36;81.58;96653.13;1655546;86;21005;-83
2022/06/04 08:23:12;;;;;;;12.60;11.40;;;;;;;19.38;81.24;96649.73;1656890;86;21039;-84
2022/06/04 08:25:40;;;;;;;13.25;12.05;;;;;;;19.35;80.74;96654.13;1631698;85;21428;-83
2022/06/04 08:28:06;;;;;;;13.45;12.07;;;;;;;19.30;80.76;96656.66;1646624;86;21026;-84
2022/06/04 08:30:32;;;;;;;13.30;12.10;;;;;;;19.24;80.54;96661.53;1663461;86;21298;-83
2022/06/04 08:32:58;;;;;;;14.73;13.32;;;;;;;19.24;80.67;96664.69;1658423;85;20991;-83
2022/06/04 08:35:24;;;;;;;14.85;13.55;;;;;;;19.21;80.48;96671.73;1662385;86;20979;-83
2022/06/04 08:37:50;;;;;;;14.00;12.70;;;;;;;19.12;79.97;96666.80;1632374;85;21140;-83
2022/06/04 08:40:33;;;;;;;15.13;13.55;;;;;;;19.06;80.41;96672.19;1638299;87;21030;-84
2022/06/04 08:43:07;;;;;;;14.25;13.10;;;;;;;19.00;79.83;96673.08;1649408;85;21535;-83
2022/06/04 08:45:33;;;;;;;13.95;12.65;;;;;;;18.97;80.27;96666.95;1678474;85;20956;-83
2022/06/04 08:47:59;;;;;;;12.30;11.10;;;;;;;18.97;80.46;96660.37;1593112;88;21026;-83
2022/06/04 08:50:25;;;;;;;13.95;12.50;;;;;;;19.02;81.63;96663.91;1645187;87;21030;-84
2022/06/04 08:52:55;;;;;;;14.53;13.15;;;;;;;19.06;81.49;96661.65;1646588;86;21090;-83
2022/06/04 08:58:37;;;;;;;15.90;14.33;;;;;;;19.03;80.87;96661.56;1627780;86;21552;-84
2022/06/04 09:01:21;;;;;;;16.95;15.35;;;;;;;18.97;80.56;96659.85;1632985;87;20990;-83
2022/06/04 09:04:22;;;;;;;17.12;15.53;;;;;;;18.88;80.92;96662.55;1646172;86;21001;-81
2022/06/04 09:06:54;;;;;;;18.32;15.88;;;;;;;18.82;81.01;96670.82;1645710;87;20954;-82
2022/06/04 09:09:27;;;;;;;16.23;14.50;;;;;;;18.81;81.81;96682.89;1639665;86;21009;-83
2022/06/04 09:12:03;;;;;;;16.30;14.90;;;;;;;18.77;81.16;96688.33;1646161;86;20950;-84
2022/06/04 09:14:51;;;;;;;16.70;15.20;;;;;;;18.73;81.15;96693.25;1646212;87;20992;-83
2022/06/04 09:17:26;;;;;;;19.15;17.40;;;;;;;18.70;80.67;96702.89;1645697;87;21065;-83
2022/06/04 09:19:55;;;;;;;17.48;15.85;;;;;;;18.57;80.43;96698.61;1636593;86;21014;-82
2022/06/04 09:22:24;;;;;;;16.27;14.78;;;;;;;18.53;81.33;96698.74;1591766;87;21034;-80
2022/06/04 09:24:51;;;;;;;18.92;17.20;;;;;;;18.54;81.90;96696.41;1618988;87;21882;-81
2022/06/04 09:27:45;;;;;;;18.95;17.05;;;;;;;18.54;81.95;96700.86;1646030;87;21085;-81
2022/06/04 09:30:31;;;;;;;18.45;16.75;;;;;;;18.53;81.90;96692.16;1639274;86;21025;-82
2022/06/04 09:33:40;;;;;;;17.73;16.02;;;;;;;18.57;82.44;96682.81;1642739;87;21101;-81
2022/06/04 09:36:11;;;;;;;22.25;16.17;;;;;;;18.57;82.16;96673.61;1647005;86;21427;-81
2022/06/04 09:38:37;;;;;;;17.87;15.88;;;;;;;18.61;82.46;96660.80;1645116;87;21079;-81
2022/06/04 09:41:07;;;;;;;17.40;15.80;;;;;;;18.62;82.44;96660.28;1646702;86;21055;-80
2022/06/04 09:43:33;;;;;;;18.12;16.42;;;;;;;18.59;82.79;96661.02;1646448;86;21001;-81
2022/06/04 09:46:00;;;;;;;17.82;16.17;;;;;;;18.60;82.88;96656.56;1646688;86;21041;-81
2022/06/04 09:48:32;;;;;;;17.10;15.40;;;;;;;18.59;82.78;96660.22;1647616;86;21045;-81
2022/06/04 09:51:01;;;;;;;;;;;;;;;18.68;83.08;96654.94;1650122;86;20998;-81
2022/06/04 09:53:37;;;;;;;14.23;13.08;;;;;;;18.78;83.66;96652.56;1637100;87;20111;-81
2022/06/04 09:56:14;;;;;;;16.67;15.13;;;;;;;18.88;83.96;96653.34;1646736;87;21432;-81
2022/06/04 09:58:42;;;;;;;18.12;16.30;;;;;;;19.00;83.98;96653.33;1647459;86;20993;-82
2022/06/04 10:01:16;;;;;;;18.10;16.40;;;;;;;19.08;84.60;96660.39;1647502;87;21383;-82
2022/06/04 10:03:41;;;;;;;24.23;20.62;;;;;;;19.19;85.09;96654.30;1646587;86;20998;-82
2022/06/04 10:06:15;;;;;;;22.00;18.95;;;;;;;19.27;84.93;96661.07;1647235;86;21057;-81
2022/06/04 10:11:52;;;;;;;15.50;14.15;;;;;;;19.31;84.48;96671.95;1663602;85;21031;-81
2022/06/04 10:14:37;;;;;;;15.88;14.33;;;;;;;19.27;83.26;96662.91;1663498;86;21051;-81
2022/06/04 10:17:06;;;;;;;15.32;13.95;;;;;;;19.29;83.65;96662.95;1663548;86;21058;-82
2022/06/04 10:19:33;;;;;;;16.25;14.65;;;;;;;19.44;83.44;96660.66;1663472;86;20976;-82
2022/06/04 10:22:12;;;;;;;14.45;13.25;;;;;;;19.66;84.29;96660.08;1663703;86;21075;-81
2022/06/04 10:24:59;;;;;;;16.20;13.88;;;;;;;19.80;83.50;96648.25;1663568;86;21007;-82
2022/06/04 10:27:42;;;;;;;11.03;10.00;;;;;;;19.91;83.70;96647.42;1663054;85;21002;-82
2022/06/04 10:30:22;;;;;;;12.85;11.65;;;;;;;20.10;83.30;96645.41;1641455;86;21030;-81
2022/06/04 10:33:09;;;;;;;12.33;11.12;;;;;;;20.13;82.16;96650.20;1663500;86;21027;-82
2022/06/04 10:36:28;;;;;;;11.90;10.80;;;;;;;20.17;81.88;96648.70;1663267;86;21050;-82
2022/06/04 10:39:21;;;;;;;12.15;11.05;;;;;;;20.15;81.83;96663.96;1663351;86;21082;-82
2022/06/04 10:42:06;;;;;;;12.78;11.50;;;;;;;20.12;80.86;96652.56;1648782;86;21015;-82
2022/06/04 10:45:03;;;;;;;12.70;11.40;;;;;;;20.07;81.42;96655.12;1663082;86;21393;-82
2022/06/04 10:47:35;;;;;;;12.23;11.05;;;;;;;20.08;80.89;96649.60;1663522;85;20979;-82
2022/06/04 10:50:24;;;;;;;12.40;11.20;;;;;;;20.14;82.10;96645.21;1663697;86;21031;-82
2022/06/04 10:53:04;;;;;;;13.20;10.88;;;;;;;20.20;82.40;96637.70;1663681;86;21047;-82
2022/06/04 10:55:45;;;;;;;10.03;9.13;;;;;;;20.32;82.47;96638.42;1663018;86;21071;-82
2022/06/04 10:58:41;;;;;;;11.55;10.40;;;;;;;20.35;80.90;96637.17;1662715;85;21102;-82
2022/06/04 11:01:21;;;;;;;11.85;10.68;;;;;;;20.22;80.43;96648.81;1662306;86;20983;-82
2022/06/04 11:04:31;;;;;;;10.82;9.93;;;;;;;20.17;80.50;96650.02;1663090;86;21094;-82
2022/06/04 11:07:02;;;;;;;12.00;10.90;;;;;;;20.11;81.26;96647.01;1663424;86;21034;-82
2022/06/04 11:09:38;;;;;;;12.75;10.25;;;;;;;19.90;80.86;96652.42;1649581;85;21092;-82
2022/06/04 11:12:24;;;;;;;11.55;10.58;;;;;;;19.80;80.82;96664.06;1647205;86;21028;-82
2022/06/04 11:14:55;;;;;;;11.12;10.13;;;;;;;19.72;80.89;96659.17;1633415;87;21010;-82
2022/06/04 11:17:28;;;;;;;11.85;10.75;;;;;;;19.75;81.91;96659.50;1647290;86;21054;-82
2022/06/04 11:20:15;;;;;;;11.83;10.72;;;;;;;19.75;81.97;96655.55;1647441;86;21041;-83
2022/06/04 11:23:16;;;;;;;12.13;11.12;;;;;;;19.83;82.18;96661.48;1647185;86;21045;-82
2022/06/04 11:25:46;;;;;;;11.95;10.80;;;;;;;19.83;81.76;96661.48;1647524;86;21078;-82
2022/06/04 11:28:16;;;;;;;11.57;10.40;;;;;;;19.76;81.56;96665.05;1647270;87;21097;-83
2022/06/04 11:30:51;;;;;;;12.25;11.08;;;;;;;19.72;80.98;96667.88;1647539;86;21069;-82
2022/06/04 11:33:45;;;;;;;11.88;10.88;;;;;;;19.61;80.08;96674.48;1647213;86;21408;-82
2022/06/04 11:36:34;;;;;;;11.73;10.63;;;;;;;19.51;80.60;96675.02;1647434;86;21020;-83
2022/06/04 11:39:23;;;;;;;10.90;9.88;;;;;;;19.47;81.27;96678.64;1647291;86;21101;-82
2022/06/04 11:41:59;;;;;;;11.20;10.10;;;;;;;19.50;81.39;96673.42;1646744;87;21448;-82
2022/06/04 11:44:42;;;;;;;11.88;10.75;;;;;;;19.56;81.60;96680.45;1647431;86;20958;-82
2022/06/04 11:47:29;;;;;;;12.60;10.25;;;;;;;19.62;81.59;96676.88;1647546;86;21105;-82
2022/06/04 11:50:06;;;;;;;11.33;10.23;;;;;;;19.74;82.37;96672.92;1634142;86;21038;-83
2022/06/04 11:52:36;;;;;;;11.30;10.20;;;;;;;19.79;81.95;96674.33;1647639;87;21033;-82
2022/06/04 11:55:31;;;;;;;16.30;10.20;;;;;;;19.76;81.70;96676.92;1647479;86;21409;-83
2022/06/04 11:58:17;;;;;;;12.37;11.10;;;;;;;19.85;82.51;96674.73;1647219;86;21166;-82
2022/06/04 12:00:45;;;;;;;12.07;11.00;;;;;;;19.85;82.00;96679.18;1647408;86;21002;-83
2022/06/04 12:03:52;;;;;;;11.93;10.65;;;;;;;19.72;81.86;96677.63;1647387;86;21002;-82
2022/06/04 12:06:35;;;;;;;10.98;10.00;;;;;;;19.64;81.56;96681.41;1646661;87;21005;-83